Observation data for Muleshoe on 12/10/2018      Previous  Date       Current Mesonet Observations  Soil Data  Daily Summary Page  Observations in Plain Language
KMUS 100600Z 27004KT M05/M05 A3038 RMK A01 T10501054  RH  097%=      5-min Rain = 0
KMUS 100605Z 26004KT M05/M06 A3038 RMK A01 T10511055  RH  097%=      5-min Rain = 0
KMUS 100610Z 26005KT M05/M06 A3038 RMK A01 T10511055  RH  097%=      5-min Rain = 0
KMUS 100615Z 26005KT M05/M06 A3038 RMK A01 T10511055  RH  097%=      5-min Rain = 0
KMUS 100620Z 26006KT M05/M05 A3038 RMK A01 T10501054  RH  097%=      5-min Rain = 0
KMUS 100625Z 26005KT M05/M05 A3037 RMK A01 T10491053  RH  097%=      5-min Rain = 0
KMUS 100630Z 27005KT M05/M05 A3038 RMK A01 T10491053  RH  097%=      5-min Rain = 0
KMUS 100635Z 26005KT M05/M05 A3038 RMK A01 T10491053  RH  097%=      5-min Rain = 0
KMUS 100640Z 26006KT M05/M05 A3037 RMK A01 T10501054  RH  097%=      5-min Rain = 0
KMUS 100645Z 26006KT M05/M05 A3037 RMK A01 T10491052  RH  097%=      5-min Rain = 0
KMUS 100650Z 27006KT M05/M05 A3037 RMK A01 T10481053  RH  097%=      5-min Rain = 0
KMUS 100655Z 28005KT M05/M06 A3037 RMK A01 T10511055  RH  097%=      5-min Rain = 0
KMUS 100700Z 27005KT M05/M06 A3036 RMK A01 T10511055  RH  097%=      5-min Rain = 0
KMUS 100705Z 28005KT M05/M06 A3036 RMK A01 T10511055  RH  097%=      5-min Rain = 0
KMUS 100710Z 27005KT M05/M06 A3036 RMK A01 T10531058  RH  097%=      5-min Rain = 0
KMUS 100715Z 27005KT M06/M06 A3036 RMK A01 T10551059  RH  097%=      5-min Rain = 0
KMUS 100720Z 27005KT M06/M06 A3036 RMK A01 T10551060  RH  097%=      5-min Rain = 0
KMUS 100725Z 27006KT M06/M06 A3036 RMK A01 T10561060  RH  097%=      5-min Rain = 0
KMUS 100730Z 27006KT M06/M06 A3035 RMK A01 T10561061  RH  097%=      5-min Rain = 0
KMUS 100735Z 26006KT M06/M06 A3035 RMK A01 T10561060  RH  097%=      5-min Rain = 0
KMUS 100740Z 26006KT M05/M06 A3035 RMK A01 T10531056  RH  098%=      5-min Rain = 0
KMUS 100745Z 26006KT M05/M05 A3035 RMK A01 T10501054  RH  098%=      5-min Rain = 0
KMUS 100750Z 26006KT M05/M05 A3035 RMK A01 T10481052  RH  097%=      5-min Rain = 0
KMUS 100755Z 26005KT M05/M05 A3035 RMK A01 T10491054  RH  097%=      5-min Rain = 0
KMUS 100800Z 25006KT M05/M06 A3035 RMK A01 T10501055  RH  097%=      5-min Rain = 0
KMUS 100805Z 25006KT M05/M05 A3035 RMK A01 T10501054  RH  097%=      5-min Rain = 0
KMUS 100810Z 25007KT M05/M05 A3035 RMK A01 T10491053  RH  097%=      5-min Rain = 0
KMUS 100815Z 26007KT M05/M05 A3035 RMK A01 T10471051  RH  097%=      5-min Rain = 0
KMUS 100820Z 26006KT M05/M05 A3035 RMK A01 T10461050  RH  097%=      5-min Rain = 0
KMUS 100825Z 25006KT M05/M05 A3034 RMK A01 T10461051  RH  097%=      5-min Rain = 0
KMUS 100830Z 26006KT M05/M05 A3034 RMK A01 T10461051  RH  097%=      5-min Rain = 0
KMUS 100835Z 26006KT M05/M05 A3034 RMK A01 T10461052  RH  097%=      5-min Rain = 0
KMUS 100840Z 25007KT M05/M05 A3034 RMK A01 T10461051  RH  097%=      5-min Rain = 0
KMUS 100845Z 26007KT M05/M05 A3034 RMK A01 T10461051  RH  097%=      5-min Rain = 0
KMUS 100850Z 26007KT M05/M05 A3034 RMK A01 T10471052  RH  097%=      5-min Rain = 0
KMUS 100855Z 26006KT M05/M05 A3034 RMK A01 T10481053  RH  097%=      5-min Rain = 0
KMUS 100900Z 26007KT M05/M05 A3034 RMK A01 T10481053  RH  097%=      5-min Rain = 0
KMUS 100905Z 25007KT M05/M05 A3034 RMK A01 T10491054  RH  097%=      5-min Rain = 0
KMUS 100910Z 26006KT M05/M05 A3034 RMK A01 T10481053  RH  097%=      5-min Rain = 0
KMUS 100915Z 26006KT M05/M05 A3035 RMK A01 T10491053  RH  097%=      5-min Rain = 0
KMUS 100920Z 25007KT M05/M05 A3035 RMK A01 T10491053  RH  097%=      5-min Rain = 0
KMUS 100925Z 25007KT M05/M05 A3035 RMK A01 T10481052  RH  097%=      5-min Rain = 0
KMUS 100930Z 25007KT M05/M05 A3034 RMK A01 T10471052  RH  097%=      5-min Rain = 0
KMUS 100935Z 26007KT M05/M05 A3034 RMK A01 T10471051  RH  097%=      5-min Rain = 0
KMUS 100940Z 27007KT M05/M05 A3034 RMK A01 T10471052  RH  097%=      5-min Rain = 0
KMUS 100945Z 27006KT M05/M05 A3034 RMK A01 T10491054  RH  097%=      5-min Rain = 0
KMUS 100950Z 27006KT M05/M06 A3034 RMK A01 T10511056  RH  097%=      5-min Rain = 0
KMUS 100955Z 27006KT M05/M06 A3033 RMK A01 T10521057  RH  097%=      5-min Rain = 0
KMUS 101000Z 27006KT M05/M06 A3033 RMK A01 T10541059  RH  097%=      5-min Rain = 0
KMUS 101005Z 27006KT M06/M06 A3033 RMK A01 T10561060  RH  097%=      5-min Rain = 0
KMUS 101010Z 26006KT M06/M06 A3033 RMK A01 T10571061  RH  097%=      5-min Rain = 0
KMUS 101015Z 26006KT M06/M06 A3033 RMK A01 T10561060  RH  097%=      5-min Rain = 0
KMUS 101020Z 26005KT M06/M06 A3034 RMK A01 T10571061  RH  097%=      5-min Rain = 0
KMUS 101025Z 26004KT M06/M06 A3033 RMK A01 T10581062  RH  097%=      5-min Rain = 0
KMUS 101030Z 26004KT M06/M06 A3033 RMK A01 T10591063  RH  097%=      5-min Rain = 0
KMUS 101035Z 25004KT M06/M06 A3033 RMK A01 T10601064  RH  097%=      5-min Rain = 0
KMUS 101040Z 25004KT M06/M06 A3033 RMK A01 T10591062  RH  098%=      5-min Rain = 0
KMUS 101045Z 25005KT M06/M06 A3033 RMK A01 T10581062  RH  098%=      5-min Rain = 0
KMUS 101050Z 24005KT M06/M06 A3033 RMK A01 T10591062  RH  098%=      5-min Rain = 0
KMUS 101055Z 24006KT M06/M06 A3033 RMK A01 T10571060  RH  098%=      5-min Rain = 0
KMUS 101100Z 25005KT M06/M06 A3033 RMK A01 T10571060  RH  098%=      5-min Rain = 0
KMUS 101105Z 25005KT M06/M06 A3033 RMK A01 T10581062  RH  098%=      5-min Rain = 0
KMUS 101110Z 25005KT M06/M06 A3033 RMK A01 T10601064  RH  098%=      5-min Rain = 0
KMUS 101115Z 25005KT M06/M06 A3033 RMK A01 T10611064  RH  098%=      5-min Rain = 0
KMUS 101120Z 25005KT M06/M06 A3033 RMK A01 T10601063  RH  098%=      5-min Rain = 0
KMUS 101125Z 26006KT M06/M06 A3033 RMK A01 T10591062  RH  098%=      5-min Rain = 0
KMUS 101130Z 26006KT M06/M06 A3033 RMK A01 T10561059  RH  099%=      5-min Rain = 0
KMUS 101135Z 25007KT M05/M06 A3033 RMK A01 T10531056  RH  098%=      5-min Rain = 0
KMUS 101140Z 25007KT M05/M05 A3033 RMK A01 T10511053  RH  098%=      5-min Rain = 0
KMUS 101145Z 25006KT M05/M05 A3033 RMK A01 T10491052  RH  098%=      5-min Rain = 0
KMUS 101150Z 25006KT M05/M05 A3033 RMK A01 T10481051  RH  098%=      5-min Rain = 0
KMUS 101155Z 24006KT M05/M05 A3033 RMK A01 T10471050  RH  098%=      5-min Rain = 0
KMUS 101200Z 24006KT M05/M05 A3033 RMK A01 T10461048  RH  098%=      5-min Rain = 0
KMUS 101205Z 24006KT M05/M05 A3033 RMK A01 T10451048  RH  098%=      5-min Rain = 0
KMUS 101210Z 24006KT M05/M05 A3033 RMK A01 T10461049  RH  098%=      5-min Rain = 0
KMUS 101215Z 24006KT M05/M05 A3033 RMK A01 T10471050  RH  098%=      5-min Rain = 0
KMUS 101220Z 24006KT M05/M05 A3034 RMK A01 T10481051  RH  098%=      5-min Rain = 0
KMUS 101225Z 24007KT M05/M05 A3034 RMK A01 T10481052  RH  098%=      5-min Rain = 0
KMUS 101230Z 23006KT M05/M05 A3034 RMK A01 T10481051  RH  098%=      5-min Rain = 0
KMUS 101235Z 23006KT M05/M05 A3034 RMK A01 T10481051  RH  098%=      5-min Rain = 0
KMUS 101240Z 24006KT M05/M05 A3034 RMK A01 T10471051  RH  098%=      5-min Rain = 0
KMUS 101245Z 24006KT M05/M05 A3034 RMK A01 T10481052  RH  098%=      5-min Rain = 0
KMUS 101250Z 24005KT M05/M05 A3034 RMK A01 T10491053  RH  097%=      5-min Rain = 0
KMUS 101255Z 24005KT M05/M05 A3034 RMK A01 T10501054  RH  097%=      5-min Rain = 0
KMUS 101300Z 24006KT M05/M06 A3034 RMK A01 T10521056  RH  097%=      5-min Rain = 0
KMUS 101305Z 24006KT M05/M06 A3034 RMK A01 T10521056  RH  097%=      5-min Rain = 0
KMUS 101310Z 24006KT M05/M06 A3034 RMK A01 T10531057  RH  097%=      5-min Rain = 0
KMUS 101315Z 24005KT M05/M06 A3035 RMK A01 T10541059  RH  097%=      5-min Rain = 0
KMUS 101320Z 23005KT M06/M06 A3035 RMK A01 T10561061  RH  097%=      5-min Rain = 0
KMUS 101325Z 23005KT M06/M06 A3035 RMK A01 T10581063  RH  097%=      5-min Rain = 0
KMUS 101330Z 23006KT M06/M06 A3035 RMK A01 T10591064  RH  097%=      5-min Rain = 0
KMUS 101335Z 24006KT M06/M06 A3035 RMK A01 T10591063  RH  097%=      5-min Rain = 0
KMUS 101340Z 25006KT M06/M06 A3035 RMK A01 T10591063  RH  097%=      5-min Rain = 0
KMUS 101345Z 25006KT M06/M06 A3035 RMK A01 T10581062  RH  097%=      5-min Rain = 0
KMUS 101350Z 25006KT M06/M06 A3035 RMK A01 T10571060  RH  097%=      5-min Rain = 0
KMUS 101355Z 26007KT M05/M06 A3036 RMK A01 T10531057  RH  098%=      5-min Rain = 0
KMUS 101400Z 26007KT M05/M06 A3036 RMK A01 T10511055  RH  097%=      5-min Rain = 0
KMUS 101405Z 26007KT M05/M05 A3036 RMK A01 T10491053  RH  097%=      5-min Rain = 0
KMUS 101410Z 27007KT M05/M05 A3036 RMK A01 T10481052  RH  097%=      5-min Rain = 0
KMUS 101415Z 26007KT M05/M05 A3036 RMK A01 T10471052  RH  097%=      5-min Rain = 0
KMUS 101420Z 26007KT M05/M05 A3036 RMK A01 T10451050  RH  097%=      5-min Rain = 0
KMUS 101425Z 25008KT M04/M05 A3035 RMK A01 T10431048  RH  097%=      5-min Rain = 0
KMUS 101430Z 25009KT M04/M05 A3035 RMK A01 T10411047  RH  096%=      5-min Rain = 0
KMUS 101435Z 25009KT M04/M05 A3035 RMK A01 T10391045  RH  096%=      5-min Rain = 0
KMUS 101440Z 25009KT M04/M05 A3035 RMK A01 T10381045  RH  096%=      5-min Rain = 0
KMUS 101445Z 25008KT M04/M05 A3035 RMK A01 T10381045  RH  095%=      5-min Rain = 0
KMUS 101450Z 26008KT M04/M04 A3036 RMK A01 T10361043  RH  096%=      5-min Rain = 0
KMUS 101455Z 26007KT M03/M04 A3036 RMK A01 T10331039  RH  096%=      5-min Rain = 0
KMUS 101500Z 26009KT M03/M04 A3036 RMK A01 T10311037  RH  096%=      5-min Rain = 0
KMUS 101505Z 25009KT M03/M04 A3036 RMK A01 T10281035  RH  096%=      5-min Rain = 0
KMUS 101510Z 25008KT M03/M03 A3036 RMK A01 T10261032  RH  096%=      5-min Rain = 0
KMUS 101515Z 25007KT M02/M03 A3036 RMK A01 T10241032  RH  095%=      5-min Rain = 0
KMUS 101520Z 26007KT M02/M03 A3037 RMK A01 T10221029  RH  095%=      5-min Rain = 0
KMUS 101525Z 26007KT M02/M03 A3037 RMK A01 T10191027  RH  095%=      5-min Rain = 0
KMUS 101530Z 26007KT M02/M03 A3037 RMK A01 T10171025  RH  095%=      5-min Rain = 0
KMUS 101535Z 26007KT M01/M02 A3037 RMK A01 T10141022  RH  095%=      5-min Rain = 0
KMUS 101540Z 26007KT M01/M02 A3037 RMK A01 T10111019  RH  095%=      5-min Rain = 0
KMUS 101545Z 26007KT M01/M02 A3037 RMK A01 T10091018  RH  094%=      5-min Rain = 0
KMUS 101550Z 25006KT M01/M02 A3037 RMK A01 T10071016  RH  095%=      5-min Rain = 0
KMUS 101555Z 26006KT M00/M01 A3037 RMK A01 T10031012  RH  094%=      5-min Rain = 0
KMUS 101600Z 25007KT M00/M01 A3037 RMK A01 T10011011  RH  094%=      5-min Rain = 0
KMUS 101605Z 25007KT 00/M01 A3037 RMK A01 T00031009  RH  093%=      5-min Rain = 0
KMUS 101610Z 26008KT 01/M01 A3036 RMK A01 T00061007  RH  092%=      5-min Rain = 0
KMUS 101615Z 26007KT 01/M01 A3036 RMK A01 T00091005  RH  091%=      5-min Rain = 0
KMUS 101620Z 25007KT 01/M00 A3036 RMK A01 T00121004  RH  090%=      5-min Rain = 0
KMUS 101625Z 25006KT 02/00 A3036 RMK A01 T00170000  RH  090%=      5-min Rain = 0
KMUS 101630Z 25006KT 02/00 A3036 RMK A01 T00210001  RH  088%=      5-min Rain = 0
KMUS 101635Z 26007KT 03/00 A3036 RMK A01 T00250004  RH  087%=      5-min Rain = 0
KMUS 101640Z 26008KT 03/00 A3036 RMK A01 T00310004  RH  084%=      5-min Rain = 0
KMUS 101645Z 26008KT 04/01 A3036 RMK A01 T00360005  RH  081%=      5-min Rain = 0
KMUS 101650Z 26007KT 04/01 A3035 RMK A01 T00410006  RH  079%=      5-min Rain = 0
KMUS 101655Z 25008KT 05/01 A3035 RMK A01 T00460006  RH  077%=      5-min Rain = 0
KMUS 101700Z 26008KT 05/01 A3035 RMK A01 T00480005  RH  075%=      5-min Rain = 0
KMUS 101705Z 26008KT 05/01 A3035 RMK A01 T00520007  RH  074%=      5-min Rain = 0
KMUS 101710Z 27009KT 05/01 A3035 RMK A01 T00540007  RH  073%=      5-min Rain = 0
KMUS 101715Z 27009KT 06/01 A3035 RMK A01 T00550008  RH  073%=      5-min Rain = 0
KMUS 101720Z 26010KT 06/01 A3035 RMK A01 T00560009  RH  072%=      5-min Rain = 0
KMUS 101725Z 26009KT 06/01 A3034 RMK A01 T00600010  RH  072%=      5-min Rain = 0
KMUS 101730Z 26010KT 06/01 A3034 RMK A01 T00630010  RH  070%=      5-min Rain = 0
KMUS 101735Z 25010KT 07/01 A3034 RMK A01 T00660009  RH  068%=      5-min Rain = 0
KMUS 101740Z 25009KT 07/01 A3034 RMK A01 T00670009  RH  067%=      5-min Rain = 0.01
KMUS 101745Z 26008KT 07/01 A3034 RMK A01 T00730009  RH  065%=      5-min Rain = 0
KMUS 101750Z 28008KT 08/01 A3034 RMK A01 T00750006  RH  063%=      5-min Rain = 0
KMUS 101755Z 28007G12KT 08/01 A3034 RMK A01 T00780008  RH  062%=      5-min Rain = 0
KMUS 101800Z 27009KT 08/00 A3033 RMK A01 T00790004  RH  060%=      5-min Rain = 0
KMUS 101805Z 26009KT 08/00 A3033 RMK A01 T00820002  RH  058%=      5-min Rain = 0
KMUS 101810Z 27008KT 09/00 A3033 RMK A01 T00850002  RH  057%=      5-min Rain = 0
KMUS 101815Z 25008KT 09/00 A3032 RMK A01 T00870000  RH  055%=      5-min Rain = 0
KMUS 101820Z 26007KT 09/00 A3032 RMK A01 T00910004  RH  055%=      5-min Rain = 0
KMUS 101825Z 27007KT 09/00 A3032 RMK A01 T00920000  RH  053%=      5-min Rain = 0
KMUS 101830Z 28008KT 09/M00 A3032 RMK A01 T00931001  RH  052%=      5-min Rain = 0
KMUS 101835Z 25007KT 10/M00 A3031 RMK A01 T00961002  RH  051%=      5-min Rain = 0
KMUS 101840Z 26009KT 10/M01 A3031 RMK A01 T01001007  RH  048%=      5-min Rain = 0
KMUS 101845Z 26008KT 10/M01 A3031 RMK A01 T01011010  RH  047%=      5-min Rain = 0
KMUS 101850Z 27008KT 10/M01 A303 RMK A01 T01021011  RH  046%=      5-min Rain = 0
KMUS 101855Z 28009KT 10/M01 A303 RMK A01 T01041010  RH  046%=      5-min Rain = 0
KMUS 101900Z 26007KT 11/M01 A303 RMK A01 T01071009  RH  045%=      5-min Rain = 0
KMUS 101905Z 27007KT 11/M01 A303 RMK A01 T01081010  RH  044%=      5-min Rain = 0
KMUS 101910Z 26007G12KT 11/M01 A3029 RMK A01 T01101008  RH  044%=      5-min Rain = 0
KMUS 101915Z 26007KT 11/M01 A3029 RMK A01 T01141013  RH  042%=      5-min Rain = 0
KMUS 101920Z 27007KT 11/M02 A3029 RMK A01 T01141015  RH  041%=      5-min Rain = 0
KMUS 101925Z 25009KT 12/M02 A3029 RMK A01 T01161019  RH  039%=      5-min Rain = 0
KMUS 101930Z 25008KT 12/M03 A3029 RMK A01 T01181026  RH  037%=      5-min Rain = 0
KMUS 101935Z 25010KT 12/M04 A3028 RMK A01 T01191035  RH  034%=      5-min Rain = 0
KMUS 101940Z 25009KT 12/M03 A3028 RMK A01 T01211033  RH  034%=      5-min Rain = 0
KMUS 101945Z 24009KT 12/M03 A3028 RMK A01 T01221033  RH  034%=      5-min Rain = 0
KMUS 101950Z 25009KT 12/M03 A3028 RMK A01 T01241034  RH  033%=      5-min Rain = 0
KMUS 101955Z 25007KT 12/M03 A3027 RMK A01 T01241034  RH  033%=      5-min Rain = 0
KMUS 102000Z 24010G15KT 13/M04 A3027 RMK A01 T01261039  RH  032%=      5-min Rain = 0
KMUS 102005Z 23010G15KT 13/M05 A3027 RMK A01 T01281045  RH  030%=      5-min Rain = 0
KMUS 102010Z 24009KT 13/M05 A3027 RMK A01 T01291045  RH  030%=      5-min Rain = 0
KMUS 102015Z 23012KT 13/M05 A3027 RMK A01 T01311051  RH  028%=      5-min Rain = 0
KMUS 102020Z 24010KT 13/M05 A3027 RMK A01 T01311050  RH  028%=      5-min Rain = 0
KMUS 102025Z 24009KT 13/M04 A3026 RMK A01 T01331044  RH  029%=      5-min Rain = 0
KMUS 102030Z 24010KT 13/M04 A3026 RMK A01 T01331043  RH  029%=      5-min Rain = 0
KMUS 102035Z 23012KT 13/M05 A3026 RMK A01 T01321048  RH  028%=      5-min Rain = 0
KMUS 102040Z 24010KT 13/M05 A3026 RMK A01 T01321051  RH  028%=      5-min Rain = 0
KMUS 102045Z 25009KT 13/M05 A3026 RMK A01 T01331047  RH  028%=      5-min Rain = 0
KMUS 102050Z 25009KT 14/M06 A3025 RMK A01 T01351057  RH  026%=      5-min Rain = 0
KMUS 102055Z 26010KT 14/M06 A3025 RMK A01 T01351063  RH  025%=      5-min Rain = 0
KMUS 102100Z 25010KT 14/M06 A3025 RMK A01 T01351061  RH  025%=      5-min Rain = 0
KMUS 102105Z 26009KT 14/M06 A3025 RMK A01 T01351055  RH  026%=      5-min Rain = 0
KMUS 102110Z 25009KT 13/M05 A3025 RMK A01 T01341052  RH  027%=      5-min Rain = 0
KMUS 102115Z 24008KT 14/M05 A3025 RMK A01 T01361048  RH  028%=      5-min Rain = 0
KMUS 102120Z 24008KT 14/M05 A3025 RMK A01 T01351047  RH  028%=      5-min Rain = 0
KMUS 102125Z 24007KT 14/M04 A3024 RMK A01 T01351043  RH  029%=      5-min Rain = 0
KMUS 102130Z 22008KT 14/M04 A3024 RMK A01 T01371043  RH  029%=      5-min Rain = 0
KMUS 102135Z 25006KT 14/M04 A3024 RMK A01 T01371043  RH  028%=      5-min Rain = 0
KMUS 102140Z 26007KT 14/M05 A3024 RMK A01 T01391046  RH  028%=      5-min Rain = 0
KMUS 102145Z 26007KT 14/M04 A3024 RMK A01 T01371044  RH  028%=      5-min Rain = 0
KMUS 102150Z 25006KT 14/M05 A3024 RMK A01 T01381046  RH  028%=      5-min Rain = 0
KMUS 102155Z 25007KT 13/M05 A3024 RMK A01 T01341048  RH  028%=      5-min Rain = 0
KMUS 102200Z 25005KT 13/M05 A3024 RMK A01 T01331045  RH  029%=      5-min Rain = 0
KMUS 102205Z 25006KT 14/M05 A3024 RMK A01 T01361049  RH  027%=      5-min Rain = 0
KMUS 102210Z 23005KT 13/M05 A3024 RMK A01 T01341053  RH  027%=      5-min Rain = 0
KMUS 102215Z 24007KT 13/M06 A3024 RMK A01 T01331059  RH  026%=      5-min Rain = 0
KMUS 102220Z 24007KT 13/M06 A3024 RMK A01 T01321059  RH  026%=      5-min Rain = 0
KMUS 102225Z 24006KT 13/M06 A3024 RMK A01 T01321059  RH  026%=      5-min Rain = 0
KMUS 102230Z 23007KT 13/M05 A3024 RMK A01 T01311051  RH  028%=      5-min Rain = 0
KMUS 102235Z 22007KT 13/M05 A3024 RMK A01 T01291048  RH  029%=      5-min Rain = 0
KMUS 102240Z 23006KT 13/M05 A3025 RMK A01 T01301046  RH  029%=      5-min Rain = 0
KMUS 102245Z 24006KT 13/M05 A3024 RMK A01 T01311047  RH  029%=      5-min Rain = 0
KMUS 102250Z 22007KT 13/M03 A3024 RMK A01 T01301032  RH  033%=      5-min Rain = 0
KMUS 102255Z 20008KT 12/M01 A3024 RMK A01 T01211009  RH  041%=      5-min Rain = 0
KMUS 102300Z 20007KT 12/M01 A3024 RMK A01 T01171009  RH  042%=      5-min Rain = 0
KMUS 102305Z 20006KT 11/M01 A3024 RMK A01 T01141010  RH  043%=      5-min Rain = 0
KMUS 102310Z 20006KT 11/M01 A3024 RMK A01 T01091009  RH  044%=      5-min Rain = 0
KMUS 102315Z 20006KT 11/M01 A3024 RMK A01 T01051012  RH  045%=      5-min Rain = 0
KMUS 102320Z 20006KT 10/M01 A3024 RMK A01 T00991012  RH  047%=      5-min Rain = 0
KMUS 102325Z 19006KT 09/M01 A3024 RMK A01 T00921011  RH  049%=      5-min Rain = 0
KMUS 102330Z 20007KT 08/M01 A3024 RMK A01 T00841009  RH  052%=      5-min Rain = 0
KMUS 102335Z 19007KT 08/M01 A3024 RMK A01 T00791009  RH  055%=      5-min Rain = 0
KMUS 102340Z 19007KT 07/M01 A3024 RMK A01 T00741009  RH  056%=      5-min Rain = 0
KMUS 102345Z 19007KT 07/M01 A3025 RMK A01 T00701010  RH  057%=      5-min Rain = 0
KMUS 102350Z 19007KT 06/M01 A3025 RMK A01 T00641011  RH  060%=      5-min Rain = 0
KMUS 102355Z 19008KT 06/M01 A3025 RMK A01 T00591012  RH  061%=      5-min Rain = 0
KMUS 110000Z 19007KT 06/M01 A3025 RMK A01 T00561013  RH  062%=      5-min Rain = 0
KMUS 110005Z 19007KT 05/M02 A3024 RMK A01 T00521015  RH  062%=      5-min Rain = 0
KMUS 110010Z 19007KT 05/M02 A3025 RMK A01 T00461016  RH  064%=      5-min Rain = 0
KMUS 110015Z 19008KT 04/M02 A3025 RMK A01 T00411016  RH  067%=      5-min Rain = 0
KMUS 110020Z 19007KT 04/M02 A3025 RMK A01 T00401016  RH  067%=      5-min Rain = 0
KMUS 110025Z 20008KT 04/M02 A3025 RMK A01 T00401016  RH  067%=      5-min Rain = 0
KMUS 110030Z 20008KT 04/M02 A3025 RMK A01 T00361017  RH  069%=      5-min Rain = 0
KMUS 110035Z 20009KT 03/M02 A3025 RMK A01 T00331018  RH  070%=      5-min Rain = 0
KMUS 110040Z 20008KT 03/M02 A3025 RMK A01 T00301018  RH  071%=      5-min Rain = 0
KMUS 110045Z 20008KT 03/M02 A3025 RMK A01 T00281018  RH  072%=      5-min Rain = 0
KMUS 110050Z 20008KT 03/M02 A3025 RMK A01 T00251019  RH  073%=      5-min Rain = 0
KMUS 110055Z 20008KT 02/M02 A3025 RMK A01 T00221020  RH  075%=      5-min Rain = 0
KMUS 110100Z 20008KT 02/M02 A3025 RMK A01 T00191021  RH  075%=      5-min Rain = 0
KMUS 110105Z 20008KT 02/M02 A3025 RMK A01 T00181021  RH  076%=      5-min Rain = 0
KMUS 110110Z 20009KT 02/M02 A3026 RMK A01 T00161022  RH  077%=      5-min Rain = 0
KMUS 110115Z 20009KT 01/M02 A3026 RMK A01 T00141023  RH  077%=      5-min Rain = 0
KMUS 110120Z 21009KT 01/M02 A3026 RMK A01 T00131024  RH  077%=      5-min Rain = 0
KMUS 110125Z 21009KT 01/M03 A3026 RMK A01 T00141026  RH  076%=      5-min Rain = 0
KMUS 110130Z 20009KT 01/M03 A3026 RMK A01 T00121027  RH  076%=      5-min Rain = 0
KMUS 110135Z 20009KT 01/M03 A3026 RMK A01 T00131025  RH  076%=      5-min Rain = 0
KMUS 110140Z 20009KT 01/M03 A3026 RMK A01 T00121026  RH  076%=      5-min Rain = 0
KMUS 110145Z 20008KT 01/M03 A3026 RMK A01 T00131026  RH  076%=      5-min Rain = 0
KMUS 110150Z 20008KT 01/M03 A3026 RMK A01 T00141027  RH  075%=      5-min Rain = 0
KMUS 110155Z 20009KT 02/M03 A3026 RMK A01 T00191026  RH  072%=      5-min Rain = 0
KMUS 110200Z 20008KT 02/M03 A3026 RMK A01 T00231027  RH  070%=      5-min Rain = 0
KMUS 110205Z 19008KT 02/M03 A3026 RMK A01 T00231029  RH  069%=      5-min Rain = 0
KMUS 110210Z 19008KT 02/M03 A3026 RMK A01 T00201029  RH  071%=      5-min Rain = 0
KMUS 110215Z 20008KT 02/M03 A3026 RMK A01 T00171028  RH  073%=      5-min Rain = 0
KMUS 110220Z 20008KT 02/M03 A3026 RMK A01 T00161028  RH  073%=      5-min Rain = 0
KMUS 110225Z 19008KT 01/M03 A3026 RMK A01 T00111027  RH  076%=      5-min Rain = 0
KMUS 110230Z 19007KT 01/M03 A3026 RMK A01 T00101025  RH  078%=      5-min Rain = 0
KMUS 110235Z 19007KT 01/M02 A3026 RMK A01 T00081024  RH  080%=      5-min Rain = 0
KMUS 110240Z 19007KT 01/M02 A3026 RMK A01 T00051024  RH  082%=      5-min Rain = 0
KMUS 110245Z 19007KT 00/M02 A3026 RMK A01 T00041022  RH  083%=      5-min Rain = 0
KMUS 110250Z 19006KT 00/M02 A3026 RMK A01 T00021022  RH  084%=      5-min Rain = 0
KMUS 110255Z 19005KT M00/M02 A3026 RMK A01 T10011024  RH  085%=      5-min Rain = 0
KMUS 110300Z 19006KT M00/M02 A3027 RMK A01 T10021023  RH  086%=      5-min Rain = 0
KMUS 110305Z 19004KT M00/M02 A3027 RMK A01 T10021022  RH  087%=      5-min Rain = 0
KMUS 110310Z 23002KT M00/M02 A3027 RMK A01 T10031024  RH  087%=      5-min Rain = 0
KMUS 110315Z 24003KT M00/M03 A3027 RMK A01 T10041026  RH  086%=      5-min Rain = 0
KMUS 110320Z 25004KT M01/M03 A3027 RMK A01 T10091032  RH  085%=      5-min Rain = 0
KMUS 110325Z 24004KT M01/M03 A3027 RMK A01 T10121033  RH  087%=      5-min Rain = 0
KMUS 110330Z 23004KT M01/M03 A3026 RMK A01 T10111031  RH  087%=      5-min Rain = 0
KMUS 110335Z 27003KT M01/M04 A3026 RMK A01 T10131036  RH  085%=      5-min Rain = 0
KMUS 110340Z 28003KT M02/M04 A3027 RMK A01 T10201042  RH  085%=      5-min Rain = 0
KMUS 110345Z 28002KT M03/M05 A3026 RMK A01 T10251046  RH  086%=      5-min Rain = 0
KMUS 110350Z 28003KT M03/M05 A3027 RMK A01 T10281048  RH  087%=      5-min Rain = 0
KMUS 110355Z 28004KT M04/M06 A3027 RMK A01 T10361055  RH  086%=      5-min Rain = 0
KMUS 110400Z 27005KT M04/M05 A3027 RMK A01 T10381054  RH  089%=      5-min Rain = 0
KMUS 110405Z 27005KT M04/M05 A3027 RMK A01 T10371051  RH  090%=      5-min Rain = 0
KMUS 110410Z 26004KT M04/M05 A3027 RMK A01 T10391054  RH  090%=      5-min Rain = 0
KMUS 110415Z 27003KT M04/M06 A3027 RMK A01 T10421056  RH  090%=      5-min Rain = 0
KMUS 110420Z 27003KT M04/M06 A3027 RMK A01 T10421055  RH  091%=      5-min Rain = 0
KMUS 110425Z 28005KT M04/M06 A3027 RMK A01 T10421055  RH  091%=      5-min Rain = 0
KMUS 110430Z 28005KT M04/M05 A3027 RMK A01 T10421053  RH  092%=      5-min Rain = 0
KMUS 110435Z 27004KT M04/M05 A3027 RMK A01 T10421053  RH  092%=      5-min Rain = 0
KMUS 110440Z 27005KT M04/M05 A3027 RMK A01 T10411051  RH  093%=      5-min Rain = 0
KMUS 110445Z 28005KT M04/M05 A3027 RMK A01 T10391049  RH  093%=      5-min Rain = 0
KMUS 110450Z 27004KT M04/M05 A3027 RMK A01 T10381049  RH  093%=      5-min Rain = 0
KMUS 110455Z 26004KT M04/M05 A3027 RMK A01 T10391049  RH  093%=      5-min Rain = 0
KMUS 110500Z 26004KT M04/M05 A3027 RMK A01 T10391050  RH  093%=      5-min Rain = 0
KMUS 110505Z 26004KT M04/M05 A3027 RMK A01 T10411051  RH  092%=      5-min Rain = 0
KMUS 110510Z 26003KT M04/M05 A3026 RMK A01 T10421053  RH  093%=      5-min Rain = 0
KMUS 110515Z 24003KT M04/M05 A3026 RMK A01 T10431053  RH  093%=      5-min Rain = 0
KMUS 110520Z 24003KT M05/M06 A3026 RMK A01 T10451055  RH  093%=      5-min Rain = 0
KMUS 110525Z 24003KT M05/M06 A3026 RMK A01 T10471057  RH  093%=      5-min Rain = 0
KMUS 110530Z 24003KT M05/M06 A3026 RMK A01 T10481058  RH  093%=      5-min Rain = 0
KMUS 110535Z 24002KT M05/M06 A3026 RMK A01 T10481057  RH  093%=      5-min Rain = 0
KMUS 110540Z 25002KT M05/M06 A3026 RMK A01 T10491058  RH  094%=      5-min Rain = 0
KMUS 110545Z 24001KT M05/M06 A3026 RMK A01 T10491058  RH  094%=      5-min Rain = 0
KMUS 110550Z 24001KT M05/M06 A3025 RMK A01 T10481057  RH  094%=      5-min Rain = 0
KMUS 110555Z 23001KT M05/M06 A3025 RMK A01 T10491058  RH  094%=      5-min Rain = 0

Page generated in 0.0098 seconds.